sensor_id;sensor_type;location;lat;lon;timestamp;P1;durP1;ratioP1;P2;durP2;ratioP2
59239;SDS011;45010;53.640;10.578;2023-02-20T00:00:49;1.42;;;0.80;;
59239;SDS011;45010;53.640;10.578;2023-02-20T00:03:50;1.23;;;0.50;;
59239;SDS011;45010;53.640;10.578;2023-02-20T00:06:50;1.65;;;0.75;;
59239;SDS011;45010;53.640;10.578;2023-02-20T00:09:50;2.35;;;0.90;;
59239;SDS011;45010;53.640;10.578;2023-02-20T00:12:51;1.35;;;0.50;;
59239;SDS011;45010;53.640;10.578;2023-02-20T00:15:52;1.67;;;0.65;;
59239;SDS011;45010;53.640;10.578;2023-02-20T00:18:52;1.45;;;0.60;;
59239;SDS011;45010;53.640;10.578;2023-02-20T00:21:53;1.38;;;0.60;;
59239;SDS011;45010;53.640;10.578;2023-02-20T00:24:53;2.10;;;0.68;;
59239;SDS011;45010;53.640;10.578;2023-02-20T00:27:53;2.05;;;0.80;;
59239;SDS011;45010;53.640;10.578;2023-02-20T00:30:54;1.77;;;0.68;;
59239;SDS011;45010;53.640;10.578;2023-02-20T00:33:55;1.10;;;0.75;;
59239;SDS011;45010;53.640;10.578;2023-02-20T00:36:55;1.75;;;0.65;;
59239;SDS011;45010;53.640;10.578;2023-02-20T00:39:56;1.63;;;0.60;;
59239;SDS011;45010;53.640;10.578;2023-02-20T00:42:56;2.53;;;0.90;;
59239;SDS011;45010;53.640;10.578;2023-02-20T00:45:56;2.08;;;0.80;;
59239;SDS011;45010;53.640;10.578;2023-02-20T00:48:56;1.40;;;0.63;;
59239;SDS011;45010;53.640;10.578;2023-02-20T00:51:57;2.13;;;0.70;;
59239;SDS011;45010;53.640;10.578;2023-02-20T00:54:57;2.47;;;0.60;;
59239;SDS011;45010;53.640;10.578;2023-02-20T00:57:57;1.77;;;0.50;;
59239;SDS011;45010;53.640;10.578;2023-02-20T01:00:58;1.27;;;0.60;;
59239;SDS011;45010;53.640;10.578;2023-02-20T01:03:58;1.50;;;0.70;;
59239;SDS011;45010;53.640;10.578;2023-02-20T01:06:59;2.20;;;0.55;;
59239;SDS011;45010;53.640;10.578;2023-02-20T01:09:59;0.98;;;0.50;;
59239;SDS011;45010;53.640;10.578;2023-02-20T01:12:59;2.42;;;0.70;;
59239;SDS011;45010;53.640;10.578;2023-02-20T01:15:59;2.45;;;0.73;;
59239;SDS011;45010;53.640;10.578;2023-02-20T01:19:00;1.25;;;0.40;;
59239;SDS011;45010;53.640;10.578;2023-02-20T01:22:00;0.90;;;0.50;;
59239;SDS011;45010;53.640;10.578;2023-02-20T01:25:04;2.35;;;0.60;;
59239;SDS011;45010;53.640;10.578;2023-02-20T01:28:04;1.45;;;0.50;;
59239;SDS011;45010;53.640;10.578;2023-02-20T01:31:05;0.85;;;0.55;;
59239;SDS011;45010;53.640;10.578;2023-02-20T01:34:06;1.23;;;0.45;;
59239;SDS011;45010;53.640;10.578;2023-02-20T01:37:06;3.08;;;0.60;;
59239;SDS011;45010;53.640;10.578;2023-02-20T01:40:07;1.55;;;0.50;;
59239;SDS011;45010;53.640;10.578;2023-02-20T01:43:10;1.73;;;0.65;;
59239;SDS011;45010;53.640;10.578;2023-02-20T01:49:30;1.73;;;0.43;;
59239;SDS011;45010;53.640;10.578;2023-02-20T01:52:34;1.00;;;0.65;;
59239;SDS011;45010;53.640;10.578;2023-02-20T01:55:44;1.33;;;0.40;;
59239;SDS011;45010;53.640;10.578;2023-02-20T01:58:49;1.10;;;0.50;;
59239;SDS011;45010;53.640;10.578;2023-02-20T02:01:50;1.20;;;0.40;;
59239;SDS011;45010;53.640;10.578;2023-02-20T02:04:51;1.70;;;0.55;;
59239;SDS011;45010;53.640;10.578;2023-02-20T02:07:52;1.20;;;0.40;;
59239;SDS011;45010;53.640;10.578;2023-02-20T02:10:55;1.08;;;0.43;;
59239;SDS011;45010;53.640;10.578;2023-02-20T02:14:05;1.20;;;0.40;;
59239;SDS011;45010;53.640;10.578;2023-02-20T02:17:10;1.42;;;0.68;;
59239;SDS011;45010;53.640;10.578;2023-02-20T02:37:29;0.88;;;0.40;;
59239;SDS011;45010;53.640;10.578;2023-02-20T02:47:12;1.08;;;0.55;;
59239;SDS011;45010;53.640;10.578;2023-02-20T02:50:33;1.38;;;0.52;;
59239;SDS011;45010;53.640;10.578;2023-02-20T02:53:37;0.60;;;0.47;;
59239;SDS011;45010;53.640;10.578;2023-02-20T02:56:38;0.93;;;0.43;;
59239;SDS011;45010;53.640;10.578;2023-02-20T02:59:45;1.65;;;0.40;;
59239;SDS011;45010;53.640;10.578;2023-02-20T03:06:13;1.13;;;0.40;;
59239;SDS011;45010;53.640;10.578;2023-02-20T03:09:24;0.40;;;0.40;;
59239;SDS011;45010;53.640;10.578;2023-02-20T03:12:28;0.73;;;0.50;;
59239;SDS011;45010;53.640;10.578;2023-02-20T03:15:31;0.68;;;0.50;;
59239;SDS011;45010;53.640;10.578;2023-02-20T03:18:38;0.43;;;0.28;;
59239;SDS011;45010;53.640;10.578;2023-02-20T03:21:41;1.15;;;0.40;;
59239;SDS011;45010;53.640;10.578;2023-02-20T03:24:45;0.88;;;0.30;;
59239;SDS011;45010;53.640;10.578;2023-02-20T03:28:17;0.50;;;0.40;;
59239;SDS011;45010;53.640;10.578;2023-02-20T03:31:26;0.90;;;0.40;;
59239;SDS011;45010;53.640;10.578;2023-02-20T03:34:32;0.50;;;0.30;;
59239;SDS011;45010;53.640;10.578;2023-02-20T03:37:51;0.57;;;0.50;;
59239;SDS011;45010;53.640;10.578;2023-02-20T03:41:12;0.60;;;0.40;;
59239;SDS011;45010;53.640;10.578;2023-02-20T03:44:32;0.57;;;0.40;;
59239;SDS011;45010;53.640;10.578;2023-02-20T03:47:35;0.63;;;0.50;;
59239;SDS011;45010;53.640;10.578;2023-02-20T03:50:38;0.65;;;0.28;;
59239;SDS011;45010;53.640;10.578;2023-02-20T03:53:57;0.43;;;0.40;;
59239;SDS011;45010;53.640;10.578;2023-02-20T03:57:01;1.20;;;0.47;;
59239;SDS011;45010;53.640;10.578;2023-02-20T04:00:33;0.57;;;0.40;;
59239;SDS011;45010;53.640;10.578;2023-02-20T04:03:35;1.55;;;0.40;;
59239;SDS011;45010;53.640;10.578;2023-02-20T04:06:38;0.52;;;0.30;;
59239;SDS011;45010;53.640;10.578;2023-02-20T04:09:41;0.65;;;0.30;;
59239;SDS011;45010;53.640;10.578;2023-02-20T04:12:44;0.90;;;0.50;;
59239;SDS011;45010;53.640;10.578;2023-02-20T04:15:48;0.80;;;0.40;;
59239;SDS011;45010;53.640;10.578;2023-02-20T04:18:49;1.05;;;0.40;;
59239;SDS011;45010;53.640;10.578;2023-02-20T04:21:51;0.40;;;0.32;;
59239;SDS011;45010;53.640;10.578;2023-02-20T04:24:58;1.00;;;0.45;;
59239;SDS011;45010;53.640;10.578;2023-02-20T04:28:02;0.93;;;0.50;;
59239;SDS011;45010;53.640;10.578;2023-02-20T04:31:04;0.82;;;0.40;;
59239;SDS011;45010;53.640;10.578;2023-02-20T04:34:04;0.80;;;0.30;;
59239;SDS011;45010;53.640;10.578;2023-02-20T04:37:08;1.40;;;0.30;;
59239;SDS011;45010;53.640;10.578;2023-02-20T04:40:14;1.02;;;0.45;;
59239;SDS011;45010;53.640;10.578;2023-02-20T04:43:16;0.73;;;0.50;;
59239;SDS011;45010;53.640;10.578;2023-02-20T04:46:16;0.68;;;0.30;;
59239;SDS011;45010;53.640;10.578;2023-02-20T04:49:16;0.40;;;0.30;;
59239;SDS011;45010;53.640;10.578;2023-02-20T04:52:17;0.57;;;0.40;;
59239;SDS011;45010;53.640;10.578;2023-02-20T04:55:17;0.43;;;0.30;;
59239;SDS011;45010;53.640;10.578;2023-02-20T04:58:19;0.82;;;0.30;;
59239;SDS011;45010;53.640;10.578;2023-02-20T05:01:19;0.70;;;0.30;;
59239;SDS011;45010;53.640;10.578;2023-02-20T05:04:20;0.30;;;0.30;;
59239;SDS011;45010;53.640;10.578;2023-02-20T05:07:21;0.43;;;0.30;;
59239;SDS011;45010;53.640;10.578;2023-02-20T05:10:21;0.20;;;0.20;;
59239;SDS011;45010;53.640;10.578;2023-02-20T05:13:22;0.40;;;0.40;;
59239;SDS011;45010;53.640;10.578;2023-02-20T05:16:23;0.50;;;0.40;;
59239;SDS011;45010;53.640;10.578;2023-02-20T05:19:23;0.55;;;0.30;;
59239;SDS011;45010;53.640;10.578;2023-02-20T05:22:23;0.30;;;0.20;;
59239;SDS011;45010;53.640;10.578;2023-02-20T05:25:24;0.30;;;0.30;;
59239;SDS011;45010;53.640;10.578;2023-02-20T05:28:24;0.80;;;0.40;;
59239;SDS011;45010;53.640;10.578;2023-02-20T05:31:24;0.60;;;0.47;;
59239;SDS011;45010;53.640;10.578;2023-02-20T05:34:25;0.60;;;0.30;;
59239;SDS011;45010;53.640;10.578;2023-02-20T05:37:26;0.88;;;0.40;;
59239;SDS011;45010;53.640;10.578;2023-02-20T05:40:26;0.45;;;0.30;;
59239;SDS011;45010;53.640;10.578;2023-02-20T05:43:27;0.52;;;0.30;;
59239;SDS011;45010;53.640;10.578;2023-02-20T05:46:27;1.25;;;0.40;;
59239;SDS011;45010;53.640;10.578;2023-02-20T05:49:28;0.30;;;0.30;;
59239;SDS011;45010;53.640;10.578;2023-02-20T05:52:28;0.57;;;0.30;;
59239;SDS011;45010;53.640;10.578;2023-02-20T05:55:28;0.60;;;0.40;;
59239;SDS011;45010;53.640;10.578;2023-02-20T05:58:29;0.30;;;0.30;;
59239;SDS011;45010;53.640;10.578;2023-02-20T06:01:30;0.70;;;0.45;;
59239;SDS011;45010;53.640;10.578;2023-02-20T06:04:31;0.35;;;0.30;;
59239;SDS011;45010;53.640;10.578;2023-02-20T06:07:31;0.38;;;0.30;;
59239;SDS011;45010;53.640;10.578;2023-02-20T06:10:32;0.40;;;0.30;;
59239;SDS011;45010;53.640;10.578;2023-02-20T06:13:32;0.38;;;0.30;;
59239;SDS011;45010;53.640;10.578;2023-02-20T06:16:33;0.52;;;0.40;;
59239;SDS011;45010;53.640;10.578;2023-02-20T06:19:34;0.85;;;0.38;;
59239;SDS011;45010;53.640;10.578;2023-02-20T06:22:34;0.50;;;0.40;;
59239;SDS011;45010;53.640;10.578;2023-02-20T06:25:34;0.22;;;0.20;;
59239;SDS011;45010;53.640;10.578;2023-02-20T06:28:35;0.35;;;0.28;;
59239;SDS011;45010;53.640;10.578;2023-02-20T06:31:36;0.75;;;0.40;;
59239;SDS011;45010;53.640;10.578;2023-02-20T06:34:37;0.80;;;0.40;;
59239;SDS011;45010;53.640;10.578;2023-02-20T06:37:37;0.47;;;0.40;;
59239;SDS011;45010;53.640;10.578;2023-02-20T06:40:38;1.02;;;0.30;;
59239;SDS011;45010;53.640;10.578;2023-02-20T06:43:38;0.47;;;0.35;;
59239;SDS011;45010;53.640;10.578;2023-02-20T06:46:39;0.55;;;0.30;;
59239;SDS011;45010;53.640;10.578;2023-02-20T06:49:39;1.38;;;0.45;;
59239;SDS011;45010;53.640;10.578;2023-02-20T06:52:40;1.80;;;0.30;;
59239;SDS011;45010;53.640;10.578;2023-02-20T06:55:41;1.40;;;0.50;;
59239;SDS011;45010;53.640;10.578;2023-02-20T06:58:41;0.80;;;0.38;;
59239;SDS011;45010;53.640;10.578;2023-02-20T07:01:41;0.77;;;0.47;;
59239;SDS011;45010;53.640;10.578;2023-02-20T07:04:46;0.32;;;0.30;;
59239;SDS011;45010;53.640;10.578;2023-02-20T07:07:48;0.93;;;0.40;;
59239;SDS011;45010;53.640;10.578;2023-02-20T07:10:48;4.90;;;0.52;;
59239;SDS011;45010;53.640;10.578;2023-02-20T07:13:49;0.85;;;0.40;;
59239;SDS011;45010;53.640;10.578;2023-02-20T07:16:50;1.88;;;0.50;;
59239;SDS011;45010;53.640;10.578;2023-02-20T07:19:50;0.82;;;0.40;;
59239;SDS011;45010;53.640;10.578;2023-02-20T07:22:51;1.55;;;0.40;;
59239;SDS011;45010;53.640;10.578;2023-02-20T07:25:53;0.40;;;0.40;;
59239;SDS011;45010;53.640;10.578;2023-02-20T07:28:53;0.60;;;0.50;;
59239;SDS011;45010;53.640;10.578;2023-02-20T07:31:57;1.40;;;0.63;;
59239;SDS011;45010;53.640;10.578;2023-02-20T07:34:57;1.25;;;0.60;;
59239;SDS011;45010;53.640;10.578;2023-02-20T07:37:58;1.67;;;0.70;;
59239;SDS011;45010;53.640;10.578;2023-02-20T07:40:58;2.17;;;0.57;;
59239;SDS011;45010;53.640;10.578;2023-02-20T07:43:58;4.43;;;0.68;;
59239;SDS011;45010;53.640;10.578;2023-02-20T07:46:59;2.55;;;0.90;;
59239;SDS011;45010;53.640;10.578;2023-02-20T07:49:59;2.83;;;0.70;;
59239;SDS011;45010;53.640;10.578;2023-02-20T07:53:00;1.75;;;0.65;;
59239;SDS011;45010;53.640;10.578;2023-02-20T07:56:00;2.67;;;0.63;;
59239;SDS011;45010;53.640;10.578;2023-02-20T07:59:01;2.17;;;0.70;;
59239;SDS011;45010;53.640;10.578;2023-02-20T08:02:01;1.55;;;1.10;;
59239;SDS011;45010;53.640;10.578;2023-02-20T08:05:02;5.13;;;1.13;;
59239;SDS011;45010;53.640;10.578;2023-02-20T08:08:02;7.50;;;1.90;;
59239;SDS011;45010;53.640;10.578;2023-02-20T08:11:04;7.55;;;1.20;;
59239;SDS011;45010;53.640;10.578;2023-02-20T08:14:04;3.20;;;1.38;;
59239;SDS011;45010;53.640;10.578;2023-02-20T08:17:06;4.57;;;1.30;;
59239;SDS011;45010;53.640;10.578;2023-02-20T08:20:08;2.63;;;1.05;;
59239;SDS011;45010;53.640;10.578;2023-02-20T08:23:15;1.85;;;0.98;;
59239;SDS011;45010;53.640;10.578;2023-02-20T08:26:20;2.13;;;0.90;;
59239;SDS011;45010;53.640;10.578;2023-02-20T08:29:20;4.07;;;1.10;;
59239;SDS011;45010;53.640;10.578;2023-02-20T08:32:20;2.47;;;0.80;;
59239;SDS011;45010;53.640;10.578;2023-02-20T08:35:21;2.17;;;0.77;;
59239;SDS011;45010;53.640;10.578;2023-02-20T08:41:33;1.65;;;0.80;;
59239;SDS011;45010;53.640;10.578;2023-02-20T08:44:33;5.22;;;0.93;;
59239;SDS011;45010;53.640;10.578;2023-02-20T08:47:34;4.63;;;1.30;;
59239;SDS011;45010;53.640;10.578;2023-02-20T08:50:34;3.75;;;1.63;;
59239;SDS011;45010;53.640;10.578;2023-02-20T08:53:36;3.25;;;1.25;;
59239;SDS011;45010;53.640;10.578;2023-02-20T08:56:38;4.57;;;1.00;;
59239;SDS011;45010;53.640;10.578;2023-02-20T08:59:39;3.42;;;1.40;;
59239;SDS011;45010;53.640;10.578;2023-02-20T09:02:39;6.75;;;1.48;;
59239;SDS011;45010;53.640;10.578;2023-02-20T09:05:41;5.88;;;1.30;;
59239;SDS011;45010;53.640;10.578;2023-02-20T09:08:42;5.07;;;1.27;;
59239;SDS011;45010;53.640;10.578;2023-02-20T09:11:42;3.00;;;1.13;;
59239;SDS011;45010;53.640;10.578;2023-02-20T09:14:43;4.05;;;1.30;;
59239;SDS011;45010;53.640;10.578;2023-02-20T09:17:44;4.53;;;1.17;;
59239;SDS011;45010;53.640;10.578;2023-02-20T09:20:47;2.83;;;1.27;;
59239;SDS011;45010;53.640;10.578;2023-02-20T09:23:47;2.42;;;1.42;;
59239;SDS011;45010;53.640;10.578;2023-02-20T09:26:48;2.15;;;1.23;;
59239;SDS011;45010;53.640;10.578;2023-02-20T09:29:48;3.72;;;1.20;;
59239;SDS011;45010;53.640;10.578;2023-02-20T09:32:49;4.10;;;1.27;;
59239;SDS011;45010;53.640;10.578;2023-02-20T09:35:49;3.15;;;1.27;;
59239;SDS011;45010;53.640;10.578;2023-02-20T09:38:50;4.18;;;1.40;;
59239;SDS011;45010;53.640;10.578;2023-02-20T09:45:13;3.45;;;1.00;;
59239;SDS011;45010;53.640;10.578;2023-02-20T09:48:22;3.15;;;1.23;;
59239;SDS011;45010;53.640;10.578;2023-02-20T09:51:36;4.97;;;1.27;;
59239;SDS011;45010;53.640;10.578;2023-02-20T09:54:40;3.20;;;1.00;;
59239;SDS011;45010;53.640;10.578;2023-02-20T09:57:47;3.17;;;1.23;;
59239;SDS011;45010;53.640;10.578;2023-02-20T10:00:49;3.60;;;1.15;;
59239;SDS011;45010;53.640;10.578;2023-02-20T10:03:56;3.90;;;1.23;;
59239;SDS011;45010;53.640;10.578;2023-02-20T10:07:00;1.80;;;1.08;;
59239;SDS011;45010;53.640;10.578;2023-02-20T10:10:24;2.00;;;1.20;;
59239;SDS011;45010;53.640;10.578;2023-02-20T10:13:51;4.13;;;1.08;;
59239;SDS011;45010;53.640;10.578;2023-02-20T10:17:17;2.97;;;1.17;;
59239;SDS011;45010;53.640;10.578;2023-02-20T10:20:30;2.60;;;1.15;;
59239;SDS011;45010;53.640;10.578;2023-02-20T10:23:48;1.35;;;0.88;;
59239;SDS011;45010;53.640;10.578;2023-02-20T10:27:04;2.45;;;0.95;;
59239;SDS011;45010;53.640;10.578;2023-02-20T10:30:35;2.00;;;1.27;;
59239;SDS011;45010;53.640;10.578;2023-02-20T10:33:50;3.20;;;1.02;;
59239;SDS011;45010;53.640;10.578;2023-02-20T10:37:00;1.70;;;0.93;;
59239;SDS011;45010;53.640;10.578;2023-02-20T10:40:07;1.88;;;1.20;;
59239;SDS011;45010;53.640;10.578;2023-02-20T10:43:40;1.85;;;0.95;;
59239;SDS011;45010;53.640;10.578;2023-02-20T10:50:07;2.38;;;1.08;;
59239;SDS011;45010;53.640;10.578;2023-02-20T10:56:37;2.50;;;1.20;;
59239;SDS011;45010;53.640;10.578;2023-02-20T11:03:18;2.15;;;1.00;;
59239;SDS011;45010;53.640;10.578;2023-02-20T11:06:26;1.20;;;0.98;;
59239;SDS011;45010;53.640;10.578;2023-02-20T11:09:35;2.63;;;1.10;;
59239;SDS011;45010;53.640;10.578;2023-02-20T11:12:39;1.00;;;0.80;;
59239;SDS011;45010;53.640;10.578;2023-02-20T11:15:44;3.10;;;1.35;;
59239;SDS011;45010;53.640;10.578;2023-02-20T11:18:45;2.10;;;0.95;;
59239;SDS011;45010;53.640;10.578;2023-02-20T11:21:49;2.25;;;0.90;;
59239;SDS011;45010;53.640;10.578;2023-02-20T11:24:50;1.45;;;0.85;;
59239;SDS011;45010;53.640;10.578;2023-02-20T11:27:52;3.15;;;0.95;;
59239;SDS011;45010;53.640;10.578;2023-02-20T11:31:02;0.95;;;0.80;;
59239;SDS011;45010;53.640;10.578;2023-02-20T11:34:05;2.05;;;1.13;;
59239;SDS011;45010;53.640;10.578;2023-02-20T11:37:18;3.75;;;1.08;;
59239;SDS011;45010;53.640;10.578;2023-02-20T11:43:32;2.17;;;1.00;;
59239;SDS011;45010;53.640;10.578;2023-02-20T11:46:35;1.45;;;0.73;;
59239;SDS011;45010;53.640;10.578;2023-02-20T11:49:36;2.13;;;1.00;;
59239;SDS011;45010;53.640;10.578;2023-02-20T11:52:37;2.72;;;0.90;;
59239;SDS011;45010;53.640;10.578;2023-02-20T11:55:37;2.58;;;0.82;;
59239;SDS011;45010;53.640;10.578;2023-02-20T11:58:38;4.20;;;0.90;;
59239;SDS011;45010;53.640;10.578;2023-02-20T12:01:40;2.95;;;1.23;;
59239;SDS011;45010;53.640;10.578;2023-02-20T12:04:41;2.60;;;0.98;;
59239;SDS011;45010;53.640;10.578;2023-02-20T12:10:52;2.03;;;0.80;;
59239;SDS011;45010;53.640;10.578;2023-02-20T12:13:56;2.40;;;1.05;;
59239;SDS011;45010;53.640;10.578;2023-02-20T12:17:04;5.20;;;1.20;;
59239;SDS011;45010;53.640;10.578;2023-02-20T12:20:22;2.63;;;0.82;;
59239;SDS011;45010;53.640;10.578;2023-02-20T12:23:26;1.48;;;0.77;;
59239;SDS011;45010;53.640;10.578;2023-02-20T12:26:50;3.55;;;1.30;;
59239;SDS011;45010;53.640;10.578;2023-02-20T12:30:05;2.63;;;0.90;;
59239;SDS011;45010;53.640;10.578;2023-02-20T12:53:25;2.80;;;1.02;;
59239;SDS011;45010;53.640;10.578;2023-02-20T13:00:28;3.78;;;0.80;;
59239;SDS011;45010;53.640;10.578;2023-02-20T13:06:44;4.72;;;0.93;;
59239;SDS011;45010;53.640;10.578;2023-02-20T13:10:12;3.03;;;0.75;;
59239;SDS011;45010;53.640;10.578;2023-02-20T13:13:25;2.63;;;0.70;;
59239;SDS011;45010;53.640;10.578;2023-02-20T13:16:51;3.58;;;1.23;;
59239;SDS011;45010;53.640;10.578;2023-02-20T13:20:21;2.85;;;0.90;;
59239;SDS011;45010;53.640;10.578;2023-02-20T13:23:26;3.25;;;0.85;;
59239;SDS011;45010;53.640;10.578;2023-02-20T13:29:33;2.85;;;0.70;;
59239;SDS011;45010;53.640;10.578;2023-02-20T13:32:38;1.58;;;0.68;;
59239;SDS011;45010;53.640;10.578;2023-02-20T13:42:27;2.40;;;0.77;;
59239;SDS011;45010;53.640;10.578;2023-02-20T13:45:36;0.95;;;0.55;;
59239;SDS011;45010;53.640;10.578;2023-02-20T13:48:44;1.25;;;0.63;;
59239;SDS011;45010;53.640;10.578;2023-02-20T13:51:48;3.70;;;0.85;;
59239;SDS011;45010;53.640;10.578;2023-02-20T13:54:49;1.80;;;1.10;;
59239;SDS011;45010;53.640;10.578;2023-02-20T14:01:01;2.97;;;0.70;;
59239;SDS011;45010;53.640;10.578;2023-02-20T14:04:03;3.35;;;0.80;;
59239;SDS011;45010;53.640;10.578;2023-02-20T14:07:04;2.03;;;0.80;;
59239;SDS011;45010;53.640;10.578;2023-02-20T14:10:06;2.35;;;0.75;;
59239;SDS011;45010;53.640;10.578;2023-02-20T14:13:19;2.08;;;1.20;;
59239;SDS011;45010;53.640;10.578;2023-02-20T14:16:32;1.33;;;0.70;;
59239;SDS011;45010;53.640;10.578;2023-02-20T14:19:36;2.47;;;0.65;;
59239;SDS011;45010;53.640;10.578;2023-02-20T14:22:40;2.08;;;0.70;;
59239;SDS011;45010;53.640;10.578;2023-02-20T14:25:41;2.35;;;0.63;;
59239;SDS011;45010;53.640;10.578;2023-02-20T14:28:43;2.10;;;0.63;;
59239;SDS011;45010;53.640;10.578;2023-02-20T14:31:45;1.25;;;0.73;;
59239;SDS011;45010;53.640;10.578;2023-02-20T14:35:08;2.33;;;0.63;;
59239;SDS011;45010;53.640;10.578;2023-02-20T14:41:31;1.88;;;0.80;;
59239;SDS011;45010;53.640;10.578;2023-02-20T14:44:31;1.77;;;0.60;;
59239;SDS011;45010;53.640;10.578;2023-02-20T14:47:32;0.63;;;0.40;;
59239;SDS011;45010;53.640;10.578;2023-02-20T14:50:34;1.60;;;0.57;;
59239;SDS011;45010;53.640;10.578;2023-02-20T14:53:35;1.17;;;0.52;;
59239;SDS011;45010;53.640;10.578;2023-02-20T14:56:36;1.20;;;0.50;;
59239;SDS011;45010;53.640;10.578;2023-02-20T14:59:37;1.83;;;0.63;;
59239;SDS011;45010;53.640;10.578;2023-02-20T15:02:42;3.28;;;0.85;;
59239;SDS011;45010;53.640;10.578;2023-02-20T15:05:45;1.38;;;0.73;;
59239;SDS011;45010;53.640;10.578;2023-02-20T15:08:46;1.08;;;0.45;;
59239;SDS011;45010;53.640;10.578;2023-02-20T15:11:57;0.90;;;0.50;;
59239;SDS011;45010;53.640;10.578;2023-02-20T15:15:02;1.65;;;0.90;;
59239;SDS011;45010;53.640;10.578;2023-02-20T15:18:06;1.85;;;0.60;;
59239;SDS011;45010;53.640;10.578;2023-02-20T15:21:11;2.63;;;0.70;;
59239;SDS011;45010;53.640;10.578;2023-02-20T15:27:24;1.40;;;0.60;;
59239;SDS011;45010;53.640;10.578;2023-02-20T15:30:27;1.27;;;0.63;;
59239;SDS011;45010;53.640;10.578;2023-02-20T15:33:28;0.90;;;0.70;;
59239;SDS011;45010;53.640;10.578;2023-02-20T15:36:30;2.25;;;0.90;;
59239;SDS011;45010;53.640;10.578;2023-02-20T15:39:37;1.30;;;0.52;;
59239;SDS011;45010;53.640;10.578;2023-02-20T15:42:38;1.05;;;0.50;;
59239;SDS011;45010;53.640;10.578;2023-02-20T15:45:39;3.78;;;0.90;;
59239;SDS011;45010;53.640;10.578;2023-02-20T15:48:40;1.55;;;0.60;;
59239;SDS011;45010;53.640;10.578;2023-02-20T15:51:40;1.05;;;0.60;;
59239;SDS011;45010;53.640;10.578;2023-02-20T15:54:42;1.27;;;0.60;;
59239;SDS011;45010;53.640;10.578;2023-02-20T15:57:47;2.10;;;0.55;;
59239;SDS011;45010;53.640;10.578;2023-02-20T16:00:48;1.58;;;0.60;;
59239;SDS011;45010;53.640;10.578;2023-02-20T16:03:50;1.02;;;0.50;;
59239;SDS011;45010;53.640;10.578;2023-02-20T16:06:50;1.45;;;0.60;;
59239;SDS011;45010;53.640;10.578;2023-02-20T16:09:51;1.17;;;0.50;;
59239;SDS011;45010;53.640;10.578;2023-02-20T16:12:52;1.63;;;0.60;;
59239;SDS011;45010;53.640;10.578;2023-02-20T16:15:54;0.82;;;0.45;;
59239;SDS011;45010;53.640;10.578;2023-02-20T16:18:54;2.40;;;0.50;;
59239;SDS011;45010;53.640;10.578;2023-02-20T16:21:55;1.20;;;0.40;;
59239;SDS011;45010;53.640;10.578;2023-02-20T16:24:55;1.27;;;0.60;;
59239;SDS011;45010;53.640;10.578;2023-02-20T16:27:55;1.40;;;0.60;;
59239;SDS011;45010;53.640;10.578;2023-02-20T16:30:56;1.23;;;0.63;;
59239;SDS011;45010;53.640;10.578;2023-02-20T16:33:56;1.23;;;0.40;;
59239;SDS011;45010;53.640;10.578;2023-02-20T16:36:57;1.35;;;0.50;;
59239;SDS011;45010;53.640;10.578;2023-02-20T16:39:57;1.15;;;0.65;;
59239;SDS011;45010;53.640;10.578;2023-02-20T16:42:58;1.38;;;0.70;;
59239;SDS011;45010;53.640;10.578;2023-02-20T16:45:58;1.42;;;0.50;;
59239;SDS011;45010;53.640;10.578;2023-02-20T16:48:59;1.23;;;0.52;;
59239;SDS011;45010;53.640;10.578;2023-02-20T16:51:59;1.00;;;0.43;;
59239;SDS011;45010;53.640;10.578;2023-02-20T16:55:00;3.70;;;0.60;;
59239;SDS011;45010;53.640;10.578;2023-02-20T16:58:04;1.48;;;0.50;;
59239;SDS011;45010;53.640;10.578;2023-02-20T17:01:05;0.77;;;0.40;;
59239;SDS011;45010;53.640;10.578;2023-02-20T17:04:05;4.10;;;0.90;;
59239;SDS011;45010;53.640;10.578;2023-02-20T17:07:08;31.80;;;9.77;;
59239;SDS011;45010;53.640;10.578;2023-02-20T17:10:09;47.22;;;15.93;;
59239;SDS011;45010;53.640;10.578;2023-02-20T17:13:10;46.55;;;14.25;;
59239;SDS011;45010;53.640;10.578;2023-02-20T17:16:10;49.50;;;14.45;;
59239;SDS011;45010;53.640;10.578;2023-02-20T17:19:10;45.25;;;15.10;;
59239;SDS011;45010;53.640;10.578;2023-02-20T17:22:11;43.05;;;14.00;;
59239;SDS011;45010;53.640;10.578;2023-02-20T17:25:13;41.30;;;13.85;;
59239;SDS011;45010;53.640;10.578;2023-02-20T17:28:15;38.15;;;12.55;;
59239;SDS011;45010;53.640;10.578;2023-02-20T17:31:16;37.33;;;12.18;;
59239;SDS011;45010;53.640;10.578;2023-02-20T17:34:16;37.58;;;12.25;;
59239;SDS011;45010;53.640;10.578;2023-02-20T17:37:17;33.10;;;11.40;;
59239;SDS011;45010;53.640;10.578;2023-02-20T17:40:17;38.05;;;11.88;;
59239;SDS011;45010;53.640;10.578;2023-02-20T17:43:18;32.72;;;11.25;;
59239;SDS011;45010;53.640;10.578;2023-02-20T17:46:18;27.58;;;11.05;;
59239;SDS011;45010;53.640;10.578;2023-02-20T17:49:19;28.98;;;11.18;;
59239;SDS011;45010;53.640;10.578;2023-02-20T17:52:21;30.85;;;10.48;;
59239;SDS011;45010;53.640;10.578;2023-02-20T17:55:24;28.90;;;9.50;;
59239;SDS011;45010;53.640;10.578;2023-02-20T17:58:25;24.75;;;8.70;;
59239;SDS011;45010;53.640;10.578;2023-02-20T18:01:26;24.33;;;9.35;;
59239;SDS011;45010;53.640;10.578;2023-02-20T18:04:26;27.73;;;9.52;;
59239;SDS011;45010;53.640;10.578;2023-02-20T18:07:26;25.50;;;10.25;;
59239;SDS011;45010;53.640;10.578;2023-02-20T18:10:27;25.10;;;9.60;;
59239;SDS011;45010;53.640;10.578;2023-02-20T18:13:27;23.85;;;9.50;;
59239;SDS011;45010;53.640;10.578;2023-02-20T18:16:27;27.92;;;9.43;;
59239;SDS011;45010;53.640;10.578;2023-02-20T18:19:28;20.55;;;7.63;;
59239;SDS011;45010;53.640;10.578;2023-02-20T18:22:28;20.10;;;7.85;;
59239;SDS011;45010;53.640;10.578;2023-02-20T18:25:29;20.00;;;7.68;;
59239;SDS011;45010;53.640;10.578;2023-02-20T18:28:29;19.10;;;7.38;;
59239;SDS011;45010;53.640;10.578;2023-02-20T18:31:30;16.98;;;6.68;;
59239;SDS011;45010;53.640;10.578;2023-02-20T18:34:31;17.02;;;6.13;;
59239;SDS011;45010;53.640;10.578;2023-02-20T18:37:32;19.95;;;6.22;;
59239;SDS011;45010;53.640;10.578;2023-02-20T18:40:32;15.48;;;5.70;;
59239;SDS011;45010;53.640;10.578;2023-02-20T18:43:32;16.58;;;6.55;;
59239;SDS011;45010;53.640;10.578;2023-02-20T18:46:34;19.35;;;7.18;;
59239;SDS011;45010;53.640;10.578;2023-02-20T18:49:35;17.52;;;5.82;;
59239;SDS011;45010;53.640;10.578;2023-02-20T18:52:36;14.93;;;5.20;;
59239;SDS011;45010;53.640;10.578;2023-02-20T18:55:36;15.18;;;5.65;;
59239;SDS011;45010;53.640;10.578;2023-02-20T18:58:37;18.15;;;5.35;;
59239;SDS011;45010;53.640;10.578;2023-02-20T19:01:41;14.25;;;5.65;;
59239;SDS011;45010;53.640;10.578;2023-02-20T19:04:42;12.52;;;5.20;;
59239;SDS011;45010;53.640;10.578;2023-02-20T19:07:42;12.70;;;4.47;;
59239;SDS011;45010;53.640;10.578;2023-02-20T19:10:44;12.77;;;4.80;;
59239;SDS011;45010;53.640;10.578;2023-02-20T19:13:44;13.40;;;4.53;;
59239;SDS011;45010;53.640;10.578;2023-02-20T19:16:48;9.43;;;4.43;;
59239;SDS011;45010;53.640;10.578;2023-02-20T19:19:50;9.77;;;4.57;;
59239;SDS011;45010;53.640;10.578;2023-02-20T19:22:50;12.73;;;4.68;;
59239;SDS011;45010;53.640;10.578;2023-02-20T19:25:52;12.35;;;4.70;;
59239;SDS011;45010;53.640;10.578;2023-02-20T19:28:56;11.68;;;4.50;;
59239;SDS011;45010;53.640;10.578;2023-02-20T19:31:56;12.55;;;4.60;;
59239;SDS011;45010;53.640;10.578;2023-02-20T19:34:59;10.98;;;4.07;;
59239;SDS011;45010;53.640;10.578;2023-02-20T19:37:59;10.18;;;4.15;;
59239;SDS011;45010;53.640;10.578;2023-02-20T19:40:59;8.98;;;3.75;;
59239;SDS011;45010;53.640;10.578;2023-02-20T19:43:59;10.10;;;3.70;;